sensor_id;sensor_type;location;lat;lon;timestamp;temperature;humidity
6520;DHT22;3293;51.690;5.982;2023-11-18T00:02:13;4.10;99.90
6520;DHT22;3293;51.690;5.982;2023-11-18T00:07:13;4.20;99.90
6520;DHT22;3293;51.690;5.982;2023-11-18T00:12:14;4.30;99.90
6520;DHT22;3293;51.690;5.982;2023-11-18T00:17:14;4.30;99.90
6520;DHT22;3293;51.690;5.982;2023-11-18T00:22:15;4.30;99.90
6520;DHT22;3293;51.690;5.982;2023-11-18T00:27:15;4.10;99.90
6520;DHT22;3293;51.690;5.982;2023-11-18T00:32:15;3.90;99.90
6520;DHT22;3293;51.690;5.982;2023-11-18T00:37:15;3.90;99.90
6520;DHT22;3293;51.690;5.982;2023-11-18T00:42:15;3.80;99.90
6520;DHT22;3293;51.690;5.982;2023-11-18T00:47:15;3.60;99.90
6520;DHT22;3293;51.690;5.982;2023-11-18T00:52:15;3.50;99.90
6520;DHT22;3293;51.690;5.982;2023-11-18T00:57:15;3.50;99.90
6520;DHT22;3293;51.690;5.982;2023-11-18T01:02:15;3.50;99.90
6520;DHT22;3293;51.690;5.982;2023-11-18T01:07:14;3.40;99.90
6520;DHT22;3293;51.690;5.982;2023-11-18T01:12:15;3.30;99.90
6520;DHT22;3293;51.690;5.982;2023-11-18T01:17:15;3.20;99.90
6520;DHT22;3293;51.690;5.982;2023-11-18T01:22:16;3.10;99.90
6520;DHT22;3293;51.690;5.982;2023-11-18T01:27:17;3.00;99.90
6520;DHT22;3293;51.690;5.982;2023-11-18T01:32:19;2.80;99.90
6520;DHT22;3293;51.690;5.982;2023-11-18T01:37:19;2.80;99.90
6520;DHT22;3293;51.690;5.982;2023-11-18T01:42:23;2.70;99.90
6520;DHT22;3293;51.690;5.982;2023-11-18T01:47:23;2.70;99.90
6520;DHT22;3293;51.690;5.982;2023-11-18T01:52:23;2.70;99.90
6520;DHT22;3293;51.690;5.982;2023-11-18T01:57:23;2.90;99.90
6520;DHT22;3293;51.690;5.982;2023-11-18T02:02:26;3.10;99.90
6520;DHT22;3293;51.690;5.982;2023-11-18T02:07:27;3.10;99.90
6520;DHT22;3293;51.690;5.982;2023-11-18T02:12:31;3.20;99.90
6520;DHT22;3293;51.690;5.982;2023-11-18T02:17:34;3.20;99.90
6520;DHT22;3293;51.690;5.982;2023-11-18T02:22:36;3.30;99.90
6520;DHT22;3293;51.690;5.982;2023-11-18T02:27:37;3.40;99.90
6520;DHT22;3293;51.690;5.982;2023-11-18T02:32:41;3.40;99.90
6520;DHT22;3293;51.690;5.982;2023-11-18T02:37:47;3.50;99.90
6520;DHT22;3293;51.690;5.982;2023-11-18T02:42:48;3.50;99.90
6520;DHT22;3293;51.690;5.982;2023-11-18T02:47:53;3.60;99.90
6520;DHT22;3293;51.690;5.982;2023-11-18T02:52:57;3.60;99.90
6520;DHT22;3293;51.690;5.982;2023-11-18T02:57:56;3.70;99.90
6520;DHT22;3293;51.690;5.982;2023-11-18T03:02:56;3.70;99.90
6520;DHT22;3293;51.690;5.982;2023-11-18T03:07:56;3.80;99.90
6520;DHT22;3293;51.690;5.982;2023-11-18T03:12:57;3.90;99.90
6520;DHT22;3293;51.690;5.982;2023-11-18T03:17:57;4.00;99.90
6520;DHT22;3293;51.690;5.982;2023-11-18T03:22:59;4.10;99.90
6520;DHT22;3293;51.690;5.982;2023-11-18T03:28:00;4.30;99.90
6520;DHT22;3293;51.690;5.982;2023-11-18T03:33:00;4.40;99.90
6520;DHT22;3293;51.690;5.982;2023-11-18T03:38:00;4.50;99.90
6520;DHT22;3293;51.690;5.982;2023-11-18T03:43:00;4.50;99.90
6520;DHT22;3293;51.690;5.982;2023-11-18T03:48:00;4.60;99.90
6520;DHT22;3293;51.690;5.982;2023-11-18T03:53:00;4.60;99.90
6520;DHT22;3293;51.690;5.982;2023-11-18T03:58:03;4.60;99.90
6520;DHT22;3293;51.690;5.982;2023-11-18T04:03:03;4.60;99.90
6520;DHT22;3293;51.690;5.982;2023-11-18T04:08:06;4.60;99.90
6520;DHT22;3293;51.690;5.982;2023-11-18T04:13:06;4.60;99.90
6520;DHT22;3293;51.690;5.982;2023-11-18T04:18:06;4.60;99.90
6520;DHT22;3293;51.690;5.982;2023-11-18T04:23:06;4.70;99.90
6520;DHT22;3293;51.690;5.982;2023-11-18T04:28:06;4.70;99.90
6520;DHT22;3293;51.690;5.982;2023-11-18T04:33:06;4.70;99.90
6520;DHT22;3293;51.690;5.982;2023-11-18T04:38:06;4.70;99.90
6520;DHT22;3293;51.690;5.982;2023-11-18T04:43:06;4.70;99.90
6520;DHT22;3293;51.690;5.982;2023-11-18T04:48:06;4.70;99.90
6520;DHT22;3293;51.690;5.982;2023-11-18T04:53:06;4.60;99.90
6520;DHT22;3293;51.690;5.982;2023-11-18T04:58:08;4.60;99.90
6520;DHT22;3293;51.690;5.982;2023-11-18T05:03:09;4.60;99.90
6520;DHT22;3293;51.690;5.982;2023-11-18T05:08:19;4.60;99.90
6520;DHT22;3293;51.690;5.982;2023-11-18T05:13:19;4.60;99.90
6520;DHT22;3293;51.690;5.982;2023-11-18T05:18:19;4.70;99.90
6520;DHT22;3293;51.690;5.982;2023-11-18T05:23:19;4.70;99.90
6520;DHT22;3293;51.690;5.982;2023-11-18T05:28:19;4.80;99.90
6520;DHT22;3293;51.690;5.982;2023-11-18T05:33:19;4.80;99.90
6520;DHT22;3293;51.690;5.982;2023-11-18T05:38:20;4.90;99.90
6520;DHT22;3293;51.690;5.982;2023-11-18T05:43:30;4.90;99.90
6520;DHT22;3293;51.690;5.982;2023-11-18T05:48:35;4.90;99.90
6520;DHT22;3293;51.690;5.982;2023-11-18T05:53:40;5.00;99.90
6520;DHT22;3293;51.690;5.982;2023-11-18T05:58:41;5.00;99.90
6520;DHT22;3293;51.690;5.982;2023-11-18T06:03:43;5.00;99.90
6520;DHT22;3293;51.690;5.982;2023-11-18T06:08:43;5.00;99.90
6520;DHT22;3293;51.690;5.982;2023-11-18T06:13:48;5.00;99.90
6520;DHT22;3293;51.690;5.982;2023-11-18T06:18:51;5.00;99.90
6520;DHT22;3293;51.690;5.982;2023-11-18T06:23:51;5.00;99.90
6520;DHT22;3293;51.690;5.982;2023-11-18T06:28:52;5.00;99.90
6520;DHT22;3293;51.690;5.982;2023-11-18T06:33:53;5.10;99.90
6520;DHT22;3293;51.690;5.982;2023-11-18T06:38:53;5.10;99.90
6520;DHT22;3293;51.690;5.982;2023-11-18T06:43:53;5.10;99.90
6520;DHT22;3293;51.690;5.982;2023-11-18T06:48:54;5.10;99.90
6520;DHT22;3293;51.690;5.982;2023-11-18T06:53:55;5.10;99.90
6520;DHT22;3293;51.690;5.982;2023-11-18T06:58:55;5.10;99.90
6520;DHT22;3293;51.690;5.982;2023-11-18T07:03:54;5.10;99.90
6520;DHT22;3293;51.690;5.982;2023-11-18T07:08:55;5.10;99.90
6520;DHT22;3293;51.690;5.982;2023-11-18T07:14:00;5.10;99.90
6520;DHT22;3293;51.690;5.982;2023-11-18T07:19:00;5.20;99.90
6520;DHT22;3293;51.690;5.982;2023-11-18T07:24:03;5.10;99.90
6520;DHT22;3293;51.690;5.982;2023-11-18T07:29:03;5.20;99.90
6520;DHT22;3293;51.690;5.982;2023-11-18T07:34:04;5.20;99.90
6520;DHT22;3293;51.690;5.982;2023-11-18T07:39:05;5.20;99.90
6520;DHT22;3293;51.690;5.982;2023-11-18T07:44:15;5.20;99.90
6520;DHT22;3293;51.690;5.982;2023-11-18T07:49:15;5.30;99.90
6520;DHT22;3293;51.690;5.982;2023-11-18T07:54:16;5.40;99.90
6520;DHT22;3293;51.690;5.982;2023-11-18T07:59:16;5.40;99.90
6520;DHT22;3293;51.690;5.982;2023-11-18T08:04:17;5.40;99.90
6520;DHT22;3293;51.690;5.982;2023-11-18T08:09:20;5.50;99.90
6520;DHT22;3293;51.690;5.982;2023-11-18T08:14:23;5.50;99.90
6520;DHT22;3293;51.690;5.982;2023-11-18T08:19:23;5.60;99.90
6520;DHT22;3293;51.690;5.982;2023-11-18T08:24:23;5.70;99.90
6520;DHT22;3293;51.690;5.982;2023-11-18T08:29:23;5.70;99.90
6520;DHT22;3293;51.690;5.982;2023-11-18T08:34:27;5.80;99.90
6520;DHT22;3293;51.690;5.982;2023-11-18T08:39:27;5.90;99.90
6520;DHT22;3293;51.690;5.982;2023-11-18T08:44:28;6.00;99.90
6520;DHT22;3293;51.690;5.982;2023-11-18T08:49:28;6.00;99.90
6520;DHT22;3293;51.690;5.982;2023-11-18T08:54:33;6.10;99.90
6520;DHT22;3293;51.690;5.982;2023-11-18T08:59:37;6.10;99.90
6520;DHT22;3293;51.690;5.982;2023-11-18T09:04:37;6.10;99.90
6520;DHT22;3293;51.690;5.982;2023-11-18T09:09:38;6.10;99.90
6520;DHT22;3293;51.690;5.982;2023-11-18T09:14:39;6.10;99.90
6520;DHT22;3293;51.690;5.982;2023-11-18T09:19:39;6.30;99.90
6520;DHT22;3293;51.690;5.982;2023-11-18T09:24:39;6.30;99.90
6520;DHT22;3293;51.690;5.982;2023-11-18T09:29:39;6.50;99.90
6520;DHT22;3293;51.690;5.982;2023-11-18T09:34:40;6.60;99.90
6520;DHT22;3293;51.690;5.982;2023-11-18T09:39:40;6.70;99.90
6520;DHT22;3293;51.690;5.982;2023-11-18T09:44:45;6.70;99.90
6520;DHT22;3293;51.690;5.982;2023-11-18T09:49:49;6.80;99.90
6520;DHT22;3293;51.690;5.982;2023-11-18T09:55:02;6.80;99.90
6520;DHT22;3293;51.690;5.982;2023-11-18T10:00:04;6.90;99.90
6520;DHT22;3293;51.690;5.982;2023-11-18T10:05:20;6.90;99.90
6520;DHT22;3293;51.690;5.982;2023-11-18T10:10:20;6.80;99.90
6520;DHT22;3293;51.690;5.982;2023-11-18T10:15:22;6.80;99.90
6520;DHT22;3293;51.690;5.982;2023-11-18T10:20:43;6.70;99.90
6520;DHT22;3293;51.690;5.982;2023-11-18T10:25:51;6.70;99.90
6520;DHT22;3293;51.690;5.982;2023-11-18T10:30:57;6.70;99.90
6520;DHT22;3293;51.690;5.982;2023-11-18T10:35:59;6.70;99.90
6520;DHT22;3293;51.690;5.982;2023-11-18T10:41:03;6.80;99.90
6520;DHT22;3293;51.690;5.982;2023-11-18T10:46:07;6.80;99.90
6520;DHT22;3293;51.690;5.982;2023-11-18T10:51:12;6.90;99.90
6520;DHT22;3293;51.690;5.982;2023-11-18T10:56:21;6.90;99.90
6520;DHT22;3293;51.690;5.982;2023-11-18T11:01:35;6.90;99.90
6520;DHT22;3293;51.690;5.982;2023-11-18T11:06:43;7.00;99.90
6520;DHT22;3293;51.690;5.982;2023-11-18T11:11:56;7.10;99.90
6520;DHT22;3293;51.690;5.982;2023-11-18T11:17:07;7.20;99.90
6520;DHT22;3293;51.690;5.982;2023-11-18T11:22:34;7.30;99.90
6520;DHT22;3293;51.690;5.982;2023-11-18T11:27:50;7.30;99.90
6520;DHT22;3293;51.690;5.982;2023-11-18T11:38:17;7.40;99.90
6520;DHT22;3293;51.690;5.982;2023-11-18T11:43:18;7.40;99.90
6520;DHT22;3293;51.690;5.982;2023-11-18T11:48:24;7.30;99.90
6520;DHT22;3293;51.690;5.982;2023-11-18T11:53:32;7.30;99.90
6520;DHT22;3293;51.690;5.982;2023-11-18T11:58:36;7.30;99.90
6520;DHT22;3293;51.690;5.982;2023-11-18T12:03:41;7.30;99.90
6520;DHT22;3293;51.690;5.982;2023-11-18T12:08:43;7.30;99.90
6520;DHT22;3293;51.690;5.982;2023-11-18T12:14:04;7.40;99.90
6520;DHT22;3293;51.690;5.982;2023-11-18T12:29:58;7.60;99.90
6520;DHT22;3293;51.690;5.982;2023-11-18T12:34:58;7.60;99.90
6520;DHT22;3293;51.690;5.982;2023-11-18T12:40:21;7.70;99.90
6520;DHT22;3293;51.690;5.982;2023-11-18T12:50:36;7.70;99.90
6520;DHT22;3293;51.690;5.982;2023-11-18T12:55:36;7.80;99.90
6520;DHT22;3293;51.690;5.982;2023-11-18T13:00:42;7.80;99.90
6520;DHT22;3293;51.690;5.982;2023-11-18T13:05:45;7.80;99.90
6520;DHT22;3293;51.690;5.982;2023-11-18T13:10:46;7.90;99.90
6520;DHT22;3293;51.690;5.982;2023-11-18T13:15:47;7.90;99.90
6520;DHT22;3293;51.690;5.982;2023-11-18T13:20:56;7.90;99.90
6520;DHT22;3293;51.690;5.982;2023-11-18T13:25:57;7.90;99.90
6520;DHT22;3293;51.690;5.982;2023-11-18T13:30:59;7.90;99.90
6520;DHT22;3293;51.690;5.982;2023-11-18T13:36:01;7.90;99.90
6520;DHT22;3293;51.690;5.982;2023-11-18T13:41:01;7.90;99.90
6520;DHT22;3293;51.690;5.982;2023-11-18T13:46:03;7.90;99.90
6520;DHT22;3293;51.690;5.982;2023-11-18T13:51:04;7.80;99.90
6520;DHT22;3293;51.690;5.982;2023-11-18T13:56:08;7.90;99.90
6520;DHT22;3293;51.690;5.982;2023-11-18T14:01:12;7.80;99.90
6520;DHT22;3293;51.690;5.982;2023-11-18T14:06:12;7.80;99.90
6520;DHT22;3293;51.690;5.982;2023-11-18T14:11:12;7.80;99.90
6520;DHT22;3293;51.690;5.982;2023-11-18T14:16:12;7.80;99.90
6520;DHT22;3293;51.690;5.982;2023-11-18T14:21:12;7.70;99.90
6520;DHT22;3293;51.690;5.982;2023-11-18T14:26:13;7.80;99.90
6520;DHT22;3293;51.690;5.982;2023-11-18T14:31:13;7.80;99.90
6520;DHT22;3293;51.690;5.982;2023-11-18T14:36:13;7.70;99.90
6520;DHT22;3293;51.690;5.982;2023-11-18T14:41:14;7.70;99.90
6520;DHT22;3293;51.690;5.982;2023-11-18T14:46:15;7.70;99.90
6520;DHT22;3293;51.690;5.982;2023-11-18T14:51:15;7.70;99.90
6520;DHT22;3293;51.690;5.982;2023-11-18T14:56:15;7.70;99.90
6520;DHT22;3293;51.690;5.982;2023-11-18T15:01:15;7.70;99.90
6520;DHT22;3293;51.690;5.982;2023-11-18T15:06:25;7.70;99.90
6520;DHT22;3293;51.690;5.982;2023-11-18T15:11:25;7.70;99.90
6520;DHT22;3293;51.690;5.982;2023-11-18T15:16:25;7.60;99.90
6520;DHT22;3293;51.690;5.982;2023-11-18T15:21:25;7.60;99.90
6520;DHT22;3293;51.690;5.982;2023-11-18T15:26:25;7.60;99.90
6520;DHT22;3293;51.690;5.982;2023-11-18T15:31:24;7.60;99.90
6520;DHT22;3293;51.690;5.982;2023-11-18T15:36:24;7.70;99.90
6520;DHT22;3293;51.690;5.982;2023-11-18T15:41:25;7.60;99.90
6520;DHT22;3293;51.690;5.982;2023-11-18T15:46:25;7.60;99.90
6520;DHT22;3293;51.690;5.982;2023-11-18T15:51:25;7.60;99.90
6520;DHT22;3293;51.690;5.982;2023-11-18T15:56:26;7.60;99.90
6520;DHT22;3293;51.690;5.982;2023-11-18T16:01:26;7.60;99.90
6520;DHT22;3293;51.690;5.982;2023-11-18T16:06:26;7.70;99.90
6520;DHT22;3293;51.690;5.982;2023-11-18T16:11:25;7.70;99.90
6520;DHT22;3293;51.690;5.982;2023-11-18T16:16:26;7.80;99.90
6520;DHT22;3293;51.690;5.982;2023-11-18T16:21:26;7.80;99.90
6520;DHT22;3293;51.690;5.982;2023-11-18T16:26:26;7.80;99.90
6520;DHT22;3293;51.690;5.982;2023-11-18T16:31:27;7.90;99.90
6520;DHT22;3293;51.690;5.982;2023-11-18T16:36:26;7.90;99.90
6520;DHT22;3293;51.690;5.982;2023-11-18T16:41:26;7.90;99.90
6520;DHT22;3293;51.690;5.982;2023-11-18T16:46:27;7.90;99.90
6520;DHT22;3293;51.690;5.982;2023-11-18T16:51:29;7.90;99.90
6520;DHT22;3293;51.690;5.982;2023-11-18T16:56:28;8.00;99.90
6520;DHT22;3293;51.690;5.982;2023-11-18T17:01:28;8.00;99.90
6520;DHT22;3293;51.690;5.982;2023-11-18T17:06:28;8.10;99.90
6520;DHT22;3293;51.690;5.982;2023-11-18T17:11:28;8.20;99.90
6520;DHT22;3293;51.690;5.982;2023-11-18T17:16:30;8.20;99.90
6520;DHT22;3293;51.690;5.982;2023-11-18T17:21:30;8.30;99.90
6520;DHT22;3293;51.690;5.982;2023-11-18T17:26:36;8.30;99.90
6520;DHT22;3293;51.690;5.982;2023-11-18T17:31:39;8.30;99.90
6520;DHT22;3293;51.690;5.982;2023-11-18T17:36:41;8.40;99.90
6520;DHT22;3293;51.690;5.982;2023-11-18T17:41:41;8.40;99.90
6520;DHT22;3293;51.690;5.982;2023-11-18T17:46:41;8.50;99.90
6520;DHT22;3293;51.690;5.982;2023-11-18T17:51:41;8.60;99.90
6520;DHT22;3293;51.690;5.982;2023-11-18T17:56:42;8.60;99.90
6520;DHT22;3293;51.690;5.982;2023-11-18T18:01:41;8.70;99.90
6520;DHT22;3293;51.690;5.982;2023-11-18T18:06:41;8.80;99.90
6520;DHT22;3293;51.690;5.982;2023-11-18T18:11:41;8.80;99.90
6520;DHT22;3293;51.690;5.982;2023-11-18T18:16:41;8.90;99.90
6520;DHT22;3293;51.690;5.982;2023-11-18T18:21:41;8.90;99.90
6520;DHT22;3293;51.690;5.982;2023-11-18T18:26:41;9.00;99.90
6520;DHT22;3293;51.690;5.982;2023-11-18T18:31:40;9.10;99.90
6520;DHT22;3293;51.690;5.982;2023-11-18T18:36:40;9.10;99.90
6520;DHT22;3293;51.690;5.982;2023-11-18T18:41:40;9.20;99.90
6520;DHT22;3293;51.690;5.982;2023-11-18T18:46:41;9.30;99.90
6520;DHT22;3293;51.690;5.982;2023-11-18T18:51:40;9.40;99.90
6520;DHT22;3293;51.690;5.982;2023-11-18T18:56:40;9.40;99.90
6520;DHT22;3293;51.690;5.982;2023-11-18T19:01:40;9.50;99.90
6520;DHT22;3293;51.690;5.982;2023-11-18T19:06:44;9.60;99.90
6520;DHT22;3293;51.690;5.982;2023-11-18T19:11:44;9.60;99.90
6520;DHT22;3293;51.690;5.982;2023-11-18T19:16:45;9.70;99.90
6520;DHT22;3293;51.690;5.982;2023-11-18T19:21:45;9.80;99.90
6520;DHT22;3293;51.690;5.982;2023-11-18T19:26:50;9.90;99.90
6520;DHT22;3293;51.690;5.982;2023-11-18T19:31:50;9.90;99.90
6520;DHT22;3293;51.690;5.982;2023-11-18T19:36:50;10.00;99.90
6520;DHT22;3293;51.690;5.982;2023-11-18T19:41:50;10.00;99.90
6520;DHT22;3293;51.690;5.982;2023-11-18T19:46:49;10.00;99.90
6520;DHT22;3293;51.690;5.982;2023-11-18T19:51:51;10.10;99.90
6520;DHT22;3293;51.690;5.982;2023-11-18T19:56:51;10.20;99.90
6520;DHT22;3293;51.690;5.982;2023-11-18T20:01:50;10.20;99.90
6520;DHT22;3293;51.690;5.982;2023-11-18T20:06:54;10.30;99.90
6520;DHT22;3293;51.690;5.982;2023-11-18T20:11:54;10.30;99.90
6520;DHT22;3293;51.690;5.982;2023-11-18T20:16:55;10.30;99.90
6520;DHT22;3293;51.690;5.982;2023-11-18T20:21:55;10.30;99.90
6520;DHT22;3293;51.690;5.982;2023-11-18T20:26:55;10.30;99.90
6520;DHT22;3293;51.690;5.982;2023-11-18T20:31:55;10.40;99.90
6520;DHT22;3293;51.690;5.982;2023-11-18T20:36:55;10.40;99.90
6520;DHT22;3293;51.690;5.982;2023-11-18T20:41:55;10.40;99.90
6520;DHT22;3293;51.690;5.982;2023-11-18T20:46:55;10.50;99.90
6520;DHT22;3293;51.690;5.982;2023-11-18T20:51:55;10.50;99.90
6520;DHT22;3293;51.690;5.982;2023-11-18T20:56:55;10.60;99.90
6520;DHT22;3293;51.690;5.982;2023-11-18T21:01:55;10.60;99.90
6520;DHT22;3293;51.690;5.982;2023-11-18T21:06:55;10.70;99.90
6520;DHT22;3293;51.690;5.982;2023-11-18T21:11:55;10.80;99.90
6520;DHT22;3293;51.690;5.982;2023-11-18T21:16:57;10.90;99.90
6520;DHT22;3293;51.690;5.982;2023-11-18T21:21:59;10.90;99.90
6520;DHT22;3293;51.690;5.982;2023-11-18T21:26:59;11.00;99.90
6520;DHT22;3293;51.690;5.982;2023-11-18T21:31:59;11.00;99.90
6520;DHT22;3293;51.690;5.982;2023-11-18T21:36:59;11.00;99.90
6520;DHT22;3293;51.690;5.982;2023-11-18T21:41:59;11.10;99.90
6520;DHT22;3293;51.690;5.982;2023-11-18T21:46:59;11.10;99.90
6520;DHT22;3293;51.690;5.982;2023-11-18T21:51:58;11.10;99.90
6520;DHT22;3293;51.690;5.982;2023-11-18T21:56:59;11.20;99.90
6520;DHT22;3293;51.690;5.982;2023-11-18T22:01:59;11.30;99.90
6520;DHT22;3293;51.690;5.982;2023-11-18T22:06:59;11.20;99.90
6520;DHT22;3293;51.690;5.982;2023-11-18T22:11:59;11.30;99.90
6520;DHT22;3293;51.690;5.982;2023-11-18T22:16:58;11.30;99.90
6520;DHT22;3293;51.690;5.982;2023-11-18T22:21:58;11.30;99.90
6520;DHT22;3293;51.690;5.982;2023-11-18T22:26:58;11.40;99.90
6520;DHT22;3293;51.690;5.982;2023-11-18T22:31:58;11.40;99.90
6520;DHT22;3293;51.690;5.982;2023-11-18T22:36:58;11.40;99.90
6520;DHT22;3293;51.690;5.982;2023-11-18T22:41:59;11.50;99.90
6520;DHT22;3293;51.690;5.982;2023-11-18T22:46:59;11.60;99.90
6520;DHT22;3293;51.690;5.982;2023-11-18T22:52:00;11.60;99.90
6520;DHT22;3293;51.690;5.982;2023-11-18T22:57:01;11.60;99.90
6520;DHT22;3293;51.690;5.982;2023-11-18T23:02:01;11.70;99.90
6520;DHT22;3293;51.690;5.982;2023-11-18T23:07:01;11.70;99.90
6520;DHT22;3293;51.690;5.982;2023-11-18T23:12:01;11.70;99.90
6520;DHT22;3293;51.690;5.982;2023-11-18T23:17:05;11.70;99.90
6520;DHT22;3293;51.690;5.982;2023-11-18T23:22:05;11.80;99.90
6520;DHT22;3293;51.690;5.982;2023-11-18T23:27:06;11.90;99.90
6520;DHT22;3293;51.690;5.982;2023-11-18T23:32:06;12.00;99.90
6520;DHT22;3293;51.690;5.982;2023-11-18T23:37:06;12.00;99.90
6520;DHT22;3293;51.690;5.982;2023-11-18T23:42:06;12.00;99.90
6520;DHT22;3293;51.690;5.982;2023-11-18T23:47:06;12.00;99.90
6520;DHT22;3293;51.690;5.982;2023-11-18T23:52:06;12.10;99.90
6520;DHT22;3293;51.690;5.982;2023-11-18T23:57:06;12.20;99.90
